Weather observations for the past three days for
Monroe County Airport
Imperial (Metric)
Date Time (edt) Wind (mph) Vis. (mi.) Weather Sky Cond. Temperature (ºF) Relative Humidity Wind Chill (°F) Heat Index (°F) Pressure Precipitation (in)
Air Dwpt 6 hour altimeter (in) sea level (mb) 1 hr 3 hr 6 hr
Max. Min.
05 05:15 Calm 10.00 Fair CLR 50 48.2 94% 29.94 0.0
05 04:55 SW 3 10.00 Fair CLR 48.2 48.2 100% 29.93 0.0
05 04:35 W 3 10.00 Fair CLR 50 48.2 94% 29.94 0.0
05 04:15 W 3 10.00 Fair CLR 50 48.2 94% 29.93 0.0
05 03:55 SW 3 10.00 Fair CLR 50 50 100% 29.93 0.0
05 03:35 Calm 10.00 Fair CLR 51.8 50 94% 29.93 0.0
05 03:15 Calm 10.00 Fair CLR 51.8 50 94% 29.93 0.0
05 02:55 Calm 10.00 Fair CLR 51.8 50 94% 29.94 0.0
05 02:35 Calm 10.00 Fair CLR 53.6 50 88% 29.94 0.0
05 02:15 Calm 10.00 Fair CLR 51.8 50 94% 29.94 0.0
05 01:55 Calm 10.00 Fair CLR 53.6 50 88% 29.93 0.0
05 01:35 W 5 10.00 Fair CLR 53.6 50 88% 29.93 0.0
05 01:15 W 5 10.00 Fair CLR 53.6 50 88% 29.93 0.0
05 00:55 W 3 10.00 Fair CLR 55.4 51.8 88% 29.93 0.0
05 00:35 SW 5 10.00 Fair CLR 53.6 51.8 94% 29.93 0.0
05 00:15 SW 5 10.00 Fair CLR 55.4 51.8 88% 29.93 0.0
04 23:55 SW 6 10.00 Fair CLR 57.2 51.8 82% 29.93 0.0
04 23:35 W 5 10.00 Fair CLR 55.4 51.8 88% 29.93 0.0
04 23:15 SW 5 10.00 Fair CLR 57.2 50 77% 29.93 0.0
04 22:55 SW 6 10.00 Fair CLR 57.2 50 77% 29.93 0.0
04 22:35 SW 5 10.00 Fair CLR 57.2 50 77% 29.93 0.0
04 22:15 W 5 10.00 Fair CLR 59 48.2 68% 29.93 0.0
04 21:55 SW 5 10.00 Fair CLR 62.6 48.2 60% 29.93 0.0
04 21:35 SW 5 10.00 Fair CLR 66.2 48.2 52% 29.93 0.0
04 21:15 SW 6 10.00 Fair CLR 68 46.4 46% 29.92 0.0
04 20:55 SW 6 10.00 Fair CLR 68 46.4 46% 29.92 0.0
04 20:35 SW 7 G 13 10.00 Fair CLR 69.8 46.4 43% 29.91 0.0
04 20:15 SW 8 G 14 10.00 Fair CLR 71.6 48.2 44% 29.91 0.0
04 19:55 SW 9 G 18 10.00 Fair CLR 71.6 48.2 44% 29.91 0.0
04 19:35 SW 10 10.00 Fair CLR 73.4 48.2 41% 29.91 0.0
04 19:15 SW 8 G 17 10.00 Fair CLR 73.4 48.2 41% 29.9 0.0
04 18:55 SW 13 10.00 Fair CLR 73.4 48.2 41% 29.9 0.0
04 18:35 SW 8 10.00 Fair CLR 75.2 48.2 39% 77 29.9 0.0
04 18:15 SW 8 G 16 10.00 Fair CLR 75.2 48.2 39% 77 29.91 0.0
04 17:55 SW 10 G 20 10.00 Fair CLR 75.2 48.2 39% 77 29.91 0.0
04 17:15 SW 13 G 20 10.00 Fair CLR 77 50 39% 78 29.91 0.0
04 16:55 SW 10 G 16 10.00 Fair CLR 77 50 39% 78 29.91 0.0
04 16:35 SW 7 G 14 10.00 Fair CLR 75.2 50 41% 78 29.92 0.0
04 16:15 SW 8 G 15 10.00 Fair CLR 75.2 50 41% 78 29.93 0.0
04 15:55 SW 9 10.00 Fair CLR 75.2 50 41% 78 29.94 0.0
04 15:35 SW 9 G 15 10.00 Fair CLR 77 50 39% 78 29.94 0.0
04 15:15 SW 8 G 17 10.00 Fair CLR 75.2 50 41% 78 29.95 0.0
04 14:55 SW 9 G 16 10.00 Fair CLR 75.2 51.8 44% 78 29.96 0.0
04 14:35 SW 12 G 17 10.00 Fair CLR 75.2 51.8 44% 78 29.96 0.0
04 14:15 SW 9 10.00 Fair CLR 73.4 50 44% 29.97 0.0
04 13:55 SW 10 10.00 Fair CLR 73.4 50 44% 29.98 0.0
04 13:35 Vrbl 6 G 17 10.00 Fair CLR 73.4 48.2 41% 29.99 0.0
04 13:15 SW 8 10.00 Fair CLR 73.4 48.2 41% 29.99 0.0
04 12:55 S 15 10.00 Fair CLR 71.6 48.2 44% 30 0.0
04 12:35 S 8 G 16 10.00 Fair CLR 71.6 46.4 41% 30.01 0.0
04 12:15 SW 8 10.00 Fair CLR 69.8 46.4 43% 30.02 0.0
04 11:55 SW 10 G 18 10.00 Fair CLR 69.8 46.4 43% 30.03 0.0
04 11:35 S 13 10.00 Fair CLR 69.8 46.4 43% 30.03 0.0
04 11:15 SW 13 10.00 Fair CLR 68 46.4 46% 30.04 0.0
04 10:55 S 9 10.00 Fair CLR 66.2 46.4 49% 30.04 0.0
04 10:35 SW 9 10.00 Fair CLR 64.4 44.6 49% 30.05 0.0
04 10:15 S 7 10.00 Fair CLR 62.6 46.4 56% 30.06 0.0
04 09:55 Calm 10.00 Fair CLR 60.8 46.4 59% 30.06 0.0
04 09:35 S 5 10.00 Fair CLR 57.2 46.4 67% 30.06 0.0
04 09:15 SW 5 10.00 Fair CLR 55.4 44.6 67% 30.06 0.0
04 08:55 S 5 10.00 Fair CLR 53.6 44.6 72% 30.06 0.0
04 08:35 S 6 10.00 Fair CLR 53.6 48.2 82% 30.06 0.0
04 08:15 Calm 10.00 Fair CLR 50 48.2 94% 30.05 0.0
04 07:55 Calm 10.00 Fair CLR 48.2 46.4 94% 30.04 0.0
04 07:35 Calm 10.00 Fair CLR 44.6 44.6 100% 30.03 0.0
04 07:15 Calm 10.00 Fair CLR 42.8 42.8 100% 30.03 0.0
04 06:55 Calm 10.00 Fair CLR 41 41 100% 30.02 0.0
04 06:35 Calm 10.00 Fair CLR 42.8 42.8 100% 30.02 0.0
04 06:15 Calm 10.00 Fair CLR 42.8 42.8 100% 30.03 0.0
04 05:50 Calm 10.00 Fair CLR 42.8 42.8 100% 30.03 0.0
04 05:35 W 3 10.00 Fair CLR 41 41 100% 30.03 0.0
04 05:15 W 3 10.00 Fair CLR 42.8 42.8 100% 30.04 0.0
04 04:55 SW 3 10.00 Fair CLR 42.8 42.8 100% 30.04 0.0
04 04:35 Calm 10.00 Fair CLR 42.8 42.8 100% 30.04 0.0
04 04:15 Calm 10.00 Fair CLR 42.8 42.8 100% 30.04 0.0
04 03:55 Calm 10.00 Fair CLR 42.8 42.8 100% 30.04 0.0
04 03:35 Calm 10.00 Fair CLR 44.6 44.6 100% 30.04 0.0
04 03:15 Calm 10.00 Fair CLR 42.8 42.8 100% 30.04 0.0
04 02:55 Calm 10.00 Fair CLR 44.6 44.6 100% 30.05 0.0
04 02:35 Calm 10.00 Fair CLR 44.6 44.6 100% 30.05 0.0
04 02:10 Calm 10.00 Fair CLR 46.4 44.6 93% 30.05 0.0
04 01:55 Calm 10.00 Fair CLR 46.4 44.6 93% 30.05 0.0
04 01:35 Calm 10.00 Fair CLR 48.2 44.6 87% 30.05 0.0
04 01:10 Calm 10.00 Fair CLR 48.2 44.6 87% 30.05 0.0
04 00:50 SW 5 10.00 Fair CLR 50 44.6 82% 49 30.05 0.0
04 00:30 SW 3 10.00 Fair CLR 46.4 44.6 93% 30.05 0.0
04 00:10 SW 3 10.00 Fair CLR 46.4 44.6 93% 30.05 0.0
03 23:55 Calm 10.00 Fair CLR 46.4 46.4 100% 30.05 0.0
03 23:35 Calm 10.00 Fair CLR 46.4 46.4 100% 30.04 0.0
03 23:15 SW 3 10.00 Fair CLR 46.4 46.4 100% 30.04 0.0
03 22:50 W 3 10.00 Fair CLR 50 46.4 88% 30.03 0.0
03 22:35 Calm 10.00 Fair CLR 50 46.4 88% 30.03 0.0
03 22:15 W 5 10.00 Fair CLR 50 46.4 88% 49 30.02 0.0
03 21:55 Calm 10.00 Fair CLR 51.8 46.4 82% 30.02 0.0
03 21:35 SW 3 10.00 Fair CLR 51.8 46.4 82% 30.02 0.0
03 21:15 W 3 10.00 Fair CLR 53.6 44.6 72% 30.02 0.0
03 20:55 W 3 10.00 Fair CLR 57.2 42.8 59% 30.02 0.0
03 20:35 Calm 10.00 Fair CLR 59 39.2 48% 30.01 0.0
03 20:15 Calm 10.00 Fair CLR 60.8 39.2 45% 30.01 0.0
03 19:55 S 6 10.00 Fair CLR 62.6 39.2 42% 30.01 0.0
03 19:35 Vrbl 6 10.00 Fair CLR 64.4 39.2 40% 30.02 0.0
03 19:15 Vrbl 6 10.00 Fair CLR 64.4 37.4 37% 30.02 0.0
03 18:55 SW 5 10.00 Fair CLR 66.2 39.2 37% 30.03 0.0
03 18:35 Vrbl 5 10.00 Fair CLR 66.2 37.4 35% 30.03 0.0
03 18:15 SW 7 10.00 Fair CLR 66.2 35.6 32% 30.04 0.0
03 17:50 Vrbl 6 10.00 Fair CLR 66.2 35.6 32% 30.04 0.0
03 17:35 Vrbl 6 10.00 Fair CLR 66.2 35.6 32% 30.05 0.0
03 17:15 W 8 10.00 Fair CLR 66.2 33.8 30% 30.05 0.0
03 16:55 Vrbl 5 10.00 Fair CLR 64.4 35.6 34% 30.06 0.0
03 16:35 W 8 G 16 10.00 Fair CLR 66.2 35.6 32% 30.07 0.0
03 15:55 Calm 10.00 Fair CLR 64.4 33.8 32% 30.09 0.0
03 15:35 Vrbl 7 10.00 Fair CLR 64.4 35.6 34% 30.1 0.0
03 15:15 SW 5 10.00 Fair CLR 62.6 35.6 37% 30.1 0.0
03 14:55 Calm 10.00 Fair CLR 62.6 33.8 34% 30.11 0.0
03 14:35 NW 7 G 15 10.00 Fair CLR 62.6 35.6 37% 30.12 0.0
03 14:15 Vrbl 5 10.00 Fair CLR 62.6 37.4 39% 30.12 0.0
03 13:55 N 9 10.00 Fair CLR 62.6 35.6 37% 30.13 0.0
03 13:35 Calm 10.00 Fair CLR 59 33.8 39% 30.14 0.0
03 13:15 Calm 10.00 Fair CLR 60.8 35.6 39% 30.14 0.0
03 12:55 Calm 10.00 Fair CLR 59 33.8 39% 30.15 0.0
03 12:35 Calm 10.00 Fair CLR 59 33.8 39% 30.16 0.0
03 12:15 W 5 10.00 Fair CLR 57.2 33.8 41% 30.17 0.0
03 11:55 N 3 10.00 Fair CLR 57.2 33.8 41% 30.17 0.0
03 11:35 N 7 10.00 Fair CLR 55.4 33.8 44% 30.17 0.0
03 11:15 Vrbl 5 10.00 Fair CLR 55.4 33.8 44% 30.18 0.0
03 10:55 Vrbl 5 10.00 Fair CLR 57.2 33.8 41% 30.18 0.0
03 10:35 Vrbl 5 10.00 Fair CLR 55.4 35.6 47% 30.18 0.0
03 10:15 Calm 10.00 Fair CLR 55.4 37.4 51% 30.18 0.0
03 09:55 Calm 10.00 Fair CLR 53.6 41 63% 30.17 0.0
03 09:35 Vrbl 6 10.00 Fair CLR 51.8 42.8 72% 30.17 0.0
03 09:15 Calm 10.00 Fair CLR 50 44.6 82% 30.17 0.0
03 08:55 E 3 10.00 Fair CLR 50 44.6 82% 30.17 0.0
03 08:35 Calm 10.00 Fair CLR 48.2 44.6 87% 30.17 0.0
03 08:15 Calm 10.00 Fair CLR 44.6 44.6 100% 30.16 0.0
03 07:55 Calm 10.00 Fair CLR 42.8 42.8 100% 30.16 0.0
03 07:35 Calm 10.00 Fair CLR 42.8 42.8 100% 30.15 0.0
03 07:15 Calm 9.00 Fair CLR 41 41 100% 30.14 0.0
03 06:55 Calm 9.00 Fair CLR 39.2 39.2 100% 30.13 0.0
03 06:35 Calm 10.00 Fair CLR 41 41 100% 30.12 0.0
03 06:15 NW 5 10.00 Fair CLR 42.8 42.8 100% 41 30.11 0.0
03 05:55 Calm 10.00 Fair CLR 42.8 42.8 100% 30.11 0.0
03 05:35 N 5 10.00 Fair CLR 44.6 44.6 100% 43 30.1 0.0
03 05:15 N 5 10.00 Fair CLR 44.6 44.6 100% 43 30.1 0.0
03 04:55 N 6 10.00 Fair CLR 44.6 44.6 100% 42 30.1 0.0
03 04:35 N 5 10.00 Fair CLR 44.6 44.6 100% 43 30.1 0.0
03 04:15 N 7 10.00 Fair CLR 44.6 44.6 100% 41 30.09 0.0
03 03:55 N 7 10.00 Fair CLR 46.4 44.6 93% 43 30.09 0.0
03 03:35 Vrbl 5 10.00 Fair CLR 46.4 42.8 87% 45 30.09 0.0
03 03:15 Vrbl 5 10.00 A Few Clouds FEW048 FEW055 46.4 42.8 87% 45 30.07 0.0
03 02:55 N 8 10.00 Mostly Cloudy BKN049 48.2 44.6 87% 45 30.07 0.0
03 02:35 N 7 10.00 Overcast BKN050 OVC060 48.2 44.6 87% 46 30.07 0.0
03 02:15 Calm 10.00 Overcast BKN050 OVC060 48.2 44.6 87% 30.07 0.0
03 01:55 NW 3 10.00 Mostly Cloudy BKN055 46.4 44.6 93% 30.07 0.0
03 01:35 Calm 10.00 Mostly Cloudy BKN060 46.4 42.8 87% 30.07 0.0
03 01:15 Calm 10.00 A Few Clouds FEW050 FEW060 46.4 42.8 87% 30.06 0.0
03 00:55 Calm 10.00 Fair CLR 46.4 42.8 87% 30.07 0.0
03 00:35 Calm 10.00 A Few Clouds FEW100 48.2 42.8 82% 30.06 0.0
03 00:15 N 5 10.00 Overcast OVC095 50 41 71% 49 30.06 0.0
02 23:55 Vrbl 3 10.00 Overcast FEW070 SCT080 OVC095 50 41 71% 30.05 0.0
02 23:35 N 7 10.00 Overcast FEW055 BKN070 OVC085 51.8 42.8 72% 30.06 0.0
02 23:15 NW 8 G 14 10.00 Overcast FEW055 BKN070 OVC075 51.8 41 67% 30.06 0.0
02 22:55 NW 10 G 16 10.00 Overcast FEW055 SCT065 OVC075 53.6 39.2 58% 30.06 0.0
02 22:35 NW 9 10.00 Overcast OVC065 53.6 37.4 54% 30.05 0.0
02 22:15 NW 12 10.00 Overcast OVC065 55.4 35.6 47% 30.04 0.0
02 21:55 N 6 10.00 Mostly Cloudy BKN070 BKN090 BKN110 53.6 35.6 51% 30.02 0.0
02 21:35 N 6 10.00 Partly Cloudy SCT085 53.6 35.6 51% 30.01 0.0
02 21:10 N 6 10.00 A Few Clouds FEW100 55.4 35.6 47% 30 0.0
02 20:55 N 6 10.00 Partly Cloudy SCT100 55.4 33.8 44% 30 0.0
02 20:35 N 6 10.00 A Few Clouds FEW110 55.4 33.8 44% 29.99 0.0
02 20:15 N 3 10.00 Fair CLR 57.2 32 39% 29.98 0.0
02 19:55 N 7 10.00 Fair CLR 59 32 36% 29.97 0.0
02 19:35 Vrbl 6 G 13 10.00 Fair CLR 60.8 33.8 36% 29.97 0.0
02 19:15 N 10 10.00 A Few Clouds FEW080 FEW090 60.8 32 34% 29.97 0.0
02 18:55 N 9 10.00 Partly Cloudy SCT095 62.6 33.8 34% 29.96 0.0
02 18:35 N 7 10.00 Mostly Cloudy BKN100 60.8 32 34% 29.97 0.0
02 18:15 NW 12 10.00 Mostly Cloudy FEW080 BKN100 62.6 32 32% 29.96 0.0
02 17:55 NW 12 10.00 Mostly Cloudy BKN110 62.6 32 32% 29.95 0.0
02 17:35 N 10 10.00 Mostly Cloudy SCT085 BKN100 62.6 32 32% 29.95 0.0
02 17:15 NW 9 10.00 Mostly Cloudy BKN085 BKN100 62.6 32 32% 29.95 0.0
02 16:55 NW 16 10.00 Partly Cloudy FEW075 SCT090 64.4 32 30% 29.94 0.0
02 16:35 N 8 G 14 10.00 Mostly Cloudy SCT075 BKN090 64.4 30.2 28% 29.95 0.0
02 16:15 N 5 10.00 Mostly Cloudy FEW075 BKN090 64.4 32 30% 29.95 0.0
02 15:55 Vrbl 8 10.00 Partly Cloudy FEW075 SCT090 62.6 30.2 30% 29.95 0.0
02 15:15 N 10 10.00 Partly Cloudy SCT070 62.6 33.8 34% 29.96 0.0
02 14:55 Vrbl 6 G 15 10.00 Partly Cloudy SCT070 64.4 33.8 32% 29.96 0.0
02 14:35 N 13 10.00 A Few Clouds FEW070 64.4 33.8 32% 29.96 0.0
02 14:15 Vrbl 7 G 17 10.00 Fair CLR 62.6 32 32% 29.97 0.0
02 13:55 N 9 G 18 10.00 Fair CLR 62.6 32 32% 29.97 0.0
02 13:35 Vrbl 7 G 14 10.00 Fair CLR 62.6 33.8 34% 29.98 0.0
02 13:15 NE 12 G 21 10.00 Fair CLR 62.6 32 32% 29.98 0.0
02 12:55 N 13 G 22 10.00 Fair CLR 62.6 30.2 30% 29.99 0.0
02 12:35 Vrbl 6 G 14 10.00 Fair CLR 62.6 32 32% 29.99 0.0
02 12:15 NE 10 G 17 10.00 Fair CLR 62.6 32 32% 29.99 0.0
02 11:55 NE 8 G 16 10.00 Fair CLR 60.8 32 34% 29.99 0.0
02 11:35 E 9 G 15 10.00 Fair CLR 60.8 33.8 36% 29.99 0.0
02 11:15 NE 12 G 18 10.00 Fair CLR 59 32 36% 29.99 0.0
02 10:55 NE 9 G 17 10.00 Fair CLR 59 37.4 45% 29.99 0.0
02 10:35 NE 13 G 20 10.00 Fair CLR 59 35.6 42% 29.99 0.0
02 10:15 NE 9 G 17 10.00 Fair CLR 57.2 37.4 48% 29.98 0.0
02 09:55 Vrbl 7 G 17 10.00 Fair CLR 57.2 37.4 48% 29.99 0.0
02 09:35 N 8 G 16 10.00 Fair CLR 55.4 37.4 51% 29.98 0.0
02 09:15 N 9 G 17 10.00 Fair CLR 55.4 37.4 51% 29.98 0.0
02 08:55 N 12 10.00 Fair CLR 53.6 39.2 58% 29.98 0.0
02 08:35 NE 9 10.00 Fair CLR 51.8 39.2 62% 29.97 0.0
02 08:15 N 9 10.00 A Few Clouds FEW050 51.8 39.2 62% 29.97 0.0
02 07:55 N 6 10.00 A Few Clouds FEW050 51.8 39.2 62% 29.97 0.0
02 07:35 N 7 10.00 Fair CLR 51.8 39.2 62% 29.97 0.0
02 07:15 N 8 10.00 Fair CLR 51.8 37.4 58% 29.95 0.0
02 06:55 NE 5 10.00 Fair CLR 50 37.4 62% 49 29.95 0.0
02 06:35 NE 6 10.00 Fair CLR 51.8 37.4 58% 29.95 0.0
02 06:15 N 6 G 13 10.00 A Few Clouds FEW060 51.8 37.4 58% 29.96 0.0
02 05:55 NE 7 10.00 Partly Cloudy SCT060 SCT120 51.8 37.4 58% 29.96 0.0
Date Time (edt) Wind (mph) Vis. (mi.) Weather Sky Cond. Air Dwpt Max. Min. Relative Humidity Wind Chill (°F) Heat Index (°F) altimeter (in) sea level (mb) 1 hr 3 hr 6 hr
6 hour
Temperature (ºF) Pressure Precipitation (in)